Time;durP1;ratioP1;P1;durP2;ratioP2;P2;SDS_P1;SDS_P2;PMS_P1;PMS_P2;Temp;Humidity;BMP_temperature;BMP_pressure;BME280_temperature;BME280_humidity;BME280_pressure;Samples;Min_cycle;Max_cycle;Signal;HPM_P1;HPM_P2
2020/12/13 00:00:12;;;;;;;80.65;30.88;;;5.00;99.90;;;;;;5007983;28;20384;-81
2020/12/13 00:02:38;;;;;;;80.88;30.80;;;5.00;99.90;;;;;;5007417;28;20033;-81
2020/12/13 00:05:04;;;;;;;75.68;29.10;;;4.90;99.90;;;;;;5007530;28;20046;-81
2020/12/13 00:07:30;;;;;;;79.53;29.27;;;4.80;99.90;;;;;;5006836;28;20039;-81
2020/12/13 00:09:55;;;;;;;83.10;30.55;;;4.80;99.90;;;;;;5007683;28;20072;-81
2020/12/13 00:12:21;;;;;;;71.55;28.65;;;4.80;99.90;;;;;;5007556;28;20030;-81
2020/12/13 00:14:46;;;;;;;81.43;29.58;;;4.80;99.90;;;;;;5007296;28;20088;-81
2020/12/13 00:17:12;;;;;;;89.68;30.92;;;4.80;99.90;;;;;;5007733;28;20032;-81
2020/12/13 00:19:37;;;;;;;80.75;29.90;;;4.80;99.90;;;;;;5007431;28;20058;-81
2020/12/13 00:22:03;;;;;;;74.13;28.83;;;4.90;99.90;;;;;;5007376;28;20026;-81
2020/12/13 00:24:28;;;;;;;79.05;30.80;;;4.90;99.90;;;;;;5007183;28;20389;-81
2020/12/13 00:26:54;;;;;;;83.50;29.67;;;4.80;99.90;;;;;;5008361;28;20030;-81
2020/12/13 00:29:19;;;;;;;77.65;29.42;;;4.80;99.90;;;;;;5007729;28;20030;-81
2020/12/13 00:31:45;;;;;;;82.63;30.50;;;4.80;99.90;;;;;;5001007;28;20113;-81
2020/12/13 00:34:10;;;;;;;84.07;31.13;;;4.70;99.90;;;;;;5003658;28;20061;-81
2020/12/13 00:36:36;;;;;;;83.05;31.65;;;4.80;99.90;;;;;;5007254;28;20068;-81
2020/12/13 00:39:03;;;;;;;92.57;32.45;;;4.80;99.90;;;;;;5007327;28;20049;-81
2020/12/13 00:41:28;;;;;;;87.70;32.08;;;4.90;99.90;;;;;;5007233;28;20036;-81
2020/12/13 00:43:54;;;;;;;84.90;31.08;;;4.90;99.90;;;;;;5006850;28;20100;-81
2020/12/13 00:46:19;;;;;;;89.90;32.33;;;4.90;99.90;;;;;;5007215;28;20385;-81
2020/12/13 00:48:45;;;;;;;81.00;31.00;;;4.80;99.90;;;;;;5006678;28;20042;-81
2020/12/13 00:51:10;;;;;;;80.97;30.33;;;4.80;99.90;;;;;;5013253;28;20033;-81
2020/12/13 00:53:36;;;;;;;82.13;30.13;;;4.70;99.90;;;;;;5006865;28;20468;-81
2020/12/13 00:56:01;;;;;;;85.68;30.35;;;4.70;99.90;;;;;;5007477;28;20033;-81
2020/12/13 00:58:27;;;;;;;71.22;29.52;;;4.80;99.90;;;;;;5008558;28;20080;-81
2020/12/13 01:00:52;;;;;;;87.80;31.05;;;4.80;99.90;;;;;;5007061;28;20030;-81
2020/12/13 01:03:17;;;;;;;85.22;31.10;;;4.80;99.90;;;;;;5010456;28;20034;-82
2020/12/13 01:05:43;;;;;;;89.25;31.00;;;4.80;99.90;;;;;;5009499;28;20121;-81
2020/12/13 01:08:09;;;;;;;86.38;30.13;;;4.80;99.90;;;;;;4991743;28;20039;-81
2020/12/13 01:10:34;;;;;;;79.57;30.88;;;4.80;99.90;;;;;;4991490;28;20397;-81
2020/12/13 01:13:00;;;;;;;81.28;30.73;;;4.90;99.90;;;;;;5010730;28;20032;-81
2020/12/13 01:15:25;;;;;;;81.35;29.92;;;4.80;99.90;;;;;;5010318;28;20159;-81
2020/12/13 01:17:53;;;;;;;77.90;31.33;;;4.80;99.90;;;;;;5010145;28;20148;-81
2020/12/13 01:20:20;;;;;;;77.85;29.02;;;4.90;99.90;;;;;;5010273;28;20033;-81
2020/12/13 01:22:45;;;;;;;80.53;30.45;;;4.90;99.90;;;;;;5010627;28;20100;-82
2020/12/13 01:25:11;;;;;;;78.78;31.83;;;4.90;99.90;;;;;;5010428;28;20077;-81
2020/12/13 01:27:37;;;;;;;88.97;30.60;;;4.90;99.90;;;;;;5009584;28;20104;-81
2020/12/13 01:30:07;;;;;;;84.13;29.88;;;4.80;99.90;;;;;;5010155;28;20033;-81
2020/12/13 01:32:40;;;;;;;87.20;29.20;;;4.80;99.90;;;;;;5009774;28;20038;-81
2020/12/13 01:35:07;;;;;;;86.10;30.95;;;4.80;99.90;;;;;;5010021;28;20109;-81
2020/12/13 01:37:33;;;;;;;90.25;33.60;;;4.80;99.90;;;;;;5009493;28;20052;-81
2020/12/13 01:39:58;;;;;;;86.88;31.17;;;4.80;99.90;;;;;;5010073;28;20580;-81
2020/12/13 01:42:23;;;;;;;81.20;30.27;;;4.80;99.90;;;;;;5009997;28;20033;-80
2020/12/13 01:44:49;;;;;;;79.15;29.77;;;4.70;99.90;;;;;;5009580;28;20022;-81
2020/12/13 01:47:15;;;;;;;77.47;30.08;;;4.70;99.90;;;;;;5008877;28;20453;-80
2020/12/13 01:49:44;;;;;;;79.65;30.35;;;4.70;99.90;;;;;;5010215;28;20038;-80
2020/12/13 01:54:37;;;;;;;86.20;31.15;;;4.70;99.90;;;;;;5009357;28;20473;-80
2020/12/13 01:57:04;;;;;;;72.00;29.17;;;4.60;99.90;;;;;;5009538;28;20030;-80
2020/12/13 01:59:32;;;;;;;84.60;29.58;;;4.70;99.90;;;;;;5009883;28;20026;-80
2020/12/13 02:02:01;;;;;;;82.13;30.45;;;4.70;99.90;;;;;;5009407;28;20448;-81
2020/12/13 02:04:28;;;;;;;81.93;29.55;;;4.60;99.90;;;;;;5009025;28;20100;-81
2020/12/13 02:06:54;;;;;;;80.25;27.88;;;4.70;99.90;;;;;;5008924;28;20061;-81
2020/12/13 02:09:21;;;;;;;80.60;28.17;;;4.70;99.90;;;;;;5008632;28;20041;-80
2020/12/13 02:11:48;;;;;;;80.18;30.65;;;4.70;99.90;;;;;;5008900;28;20112;-81
2020/12/13 02:14:13;;;;;;;86.43;31.38;;;4.70;99.90;;;;;;5009070;28;20112;-80
2020/12/13 02:16:43;;;;;;;85.57;32.03;;;4.80;99.90;;;;;;5008860;28;20133;-80
2020/12/13 02:19:09;;;;;;;83.80;30.52;;;4.80;99.90;;;;;;5009039;28;20026;-80
2020/12/13 02:21:35;;;;;;;87.80;30.40;;;4.80;99.90;;;;;;5009271;28;20101;-80
2020/12/13 02:24:00;;;;;;;83.72;30.10;;;4.80;99.90;;;;;;5009002;28;20106;-80
2020/12/13 02:26:26;;;;;;;88.80;30.52;;;4.90;99.90;;;;;;5009438;28;20022;-81
2020/12/13 02:28:51;;;;;;;93.15;31.90;;;4.90;99.90;;;;;;5007945;28;20190;-81
2020/12/13 02:31:17;;;;;;;80.82;30.40;;;4.80;99.90;;;;;;5009722;28;20030;-80
2020/12/13 02:33:42;;;;;;;86.97;30.23;;;4.90;99.90;;;;;;5007973;28;20030;-81
2020/12/13 02:36:08;;;;;;;87.55;33.22;;;4.80;99.90;;;;;;5008805;28;20033;-80
2020/12/13 02:38:34;;;;;;;81.97;31.25;;;4.90;99.90;;;;;;5007843;28;20037;-81
2020/12/13 02:41:00;;;;;;;77.50;28.83;;;4.90;99.90;;;;;;4999339;28;20038;-80
2020/12/13 02:43:26;;;;;;;78.82;29.90;;;4.90;99.90;;;;;;5005688;28;20038;-80
2020/12/13 02:45:52;;;;;;;81.85;30.20;;;4.80;99.90;;;;;;5008417;28;20040;-80
2020/12/13 02:48:17;;;;;;;76.13;29.30;;;4.80;99.90;;;;;;5008228;28;20037;-80
2020/12/13 02:50:43;;;;;;;80.80;29.02;;;4.90;99.90;;;;;;5017728;28;20032;-80
2020/12/13 02:53:08;;;;;;;72.55;28.70;;;4.80;99.90;;;;;;5003291;28;20037;-81
2020/12/13 02:55:34;;;;;;;82.18;30.17;;;4.70;99.90;;;;;;5009031;28;20030;-81
2020/12/13 02:57:59;;;;;;;79.53;30.58;;;4.80;99.90;;;;;;4997649;28;20021;-81
2020/12/13 03:00:25;;;;;;;82.65;31.13;;;4.70;99.90;;;;;;5008195;28;20018;-81
2020/12/13 03:02:50;;;;;;;81.28;30.15;;;4.80;99.90;;;;;;5007781;28;20084;-81
2020/12/13 03:05:16;;;;;;;80.80;31.20;;;4.90;99.90;;;;;;5007800;28;20125;-81
2020/12/13 03:07:41;;;;;;;81.57;30.95;;;4.80;99.90;;;;;;5008226;28;20419;-80
2020/12/13 03:10:07;;;;;;;74.95;28.83;;;4.80;99.90;;;;;;5008454;28;20018;-80
2020/12/13 03:12:32;;;;;;;89.43;31.70;;;4.80;99.90;;;;;;5008080;28;20045;-80
2020/12/13 03:14:58;;;;;;;75.57;29.67;;;4.80;99.90;;;;;;5008009;28;20121;-80
2020/12/13 03:17:23;;;;;;;78.65;29.75;;;4.80;99.90;;;;;;5008263;28;20083;-81
2020/12/13 03:19:49;;;;;;;86.90;31.58;;;4.70;99.90;;;;;;4996915;28;20029;-80
2020/12/13 03:22:14;;;;;;;90.40;32.63;;;4.80;99.90;;;;;;5008015;28;20025;-80
2020/12/13 03:24:40;;;;;;;84.38;31.90;;;4.70;99.90;;;;;;5007201;28;20037;-80
2020/12/13 03:27:05;;;;;;;79.90;30.17;;;4.70;99.90;;;;;;5008224;28;20026;-80
2020/12/13 03:29:31;;;;;;;84.75;31.52;;;4.60;99.90;;;;;;5008020;28;20733;-80
2020/12/13 03:31:56;;;;;;;77.28;30.35;;;4.60;99.90;;;;;;5007566;28;20018;-80
2020/12/13 03:34:22;;;;;;;87.80;30.77;;;4.60;99.90;;;;;;5008102;28;20022;-80
2020/12/13 03:36:48;;;;;;;85.57;30.92;;;4.70;99.90;;;;;;5008297;28;20030;-80
2020/12/13 03:39:13;;;;;;;82.32;30.50;;;4.70;99.90;;;;;;5006556;28;20041;-80
2020/12/13 03:41:39;;;;;;;83.90;31.45;;;4.70;99.90;;;;;;5007582;28;20392;-80
2020/12/13 03:44:04;;;;;;;82.97;30.17;;;4.60;99.90;;;;;;5007899;28;20073;-80
2020/12/13 03:46:30;;;;;;;86.95;29.65;;;4.70;99.90;;;;;;5008167;28;20034;-81
2020/12/13 03:48:55;;;;;;;81.47;30.13;;;4.70;99.90;;;;;;5007479;28;20029;-80
2020/12/13 03:51:21;;;;;;;80.57;30.00;;;4.60;99.90;;;;;;5007741;28;20038;-80
2020/12/13 03:53:46;;;;;;;90.40;32.15;;;4.70;99.90;;;;;;5006499;28;20018;-80
2020/12/13 03:56:11;;;;;;;83.40;30.92;;;4.60;99.90;;;;;;5008240;28;20084;-80
2020/12/13 03:58:37;;;;;;;86.70;29.67;;;4.60;99.90;;;;;;5003492;28;20457;-80
2020/12/13 04:01:03;;;;;;;85.25;29.85;;;4.60;99.90;;;;;;5002275;28;20049;-80
2020/12/13 04:03:28;;;;;;;83.60;30.90;;;4.60;99.90;;;;;;5007017;28;20809;-80
2020/12/13 04:05:54;;;;;;;71.18;28.30;;;4.60;99.90;;;;;;5007773;28;20037;-80
2020/12/13 04:08:19;;;;;;;76.32;29.23;;;4.60;99.90;;;;;;5007583;28;20041;-80
2020/12/13 04:10:44;;;;;;;89.28;30.88;;;4.60;99.90;;;;;;5007501;28;20278;-80
2020/12/13 04:13:10;;;;;;;84.90;29.52;;;4.60;99.90;;;;;;5007711;28;20521;-80
2020/12/13 04:15:35;;;;;;;88.32;31.73;;;4.60;99.90;;;;;;5007973;28;20083;-80
2020/12/13 04:18:01;;;;;;;87.13;31.42;;;4.70;99.90;;;;;;5007413;28;20400;-80
2020/12/13 04:20:27;;;;;;;81.25;29.95;;;4.80;99.90;;;;;;5007714;28;20026;-79
2020/12/13 04:22:52;;;;;;;80.70;30.77;;;4.70;99.90;;;;;;5007033;28;20653;-80
2020/12/13 04:25:19;;;;;;;81.68;29.73;;;4.70;99.90;;;;;;5001856;28;20018;-80
2020/12/13 04:27:45;;;;;;;76.43;29.05;;;4.70;99.90;;;;;;5007744;28;20026;-80
2020/12/13 04:30:10;;;;;;;87.15;31.92;;;4.80;99.90;;;;;;5007611;28;20520;-80
2020/12/13 04:32:35;;;;;;;83.25;29.55;;;4.70;99.90;;;;;;5007271;28;20034;-80
2020/12/13 04:35:02;;;;;;;86.20;28.92;;;4.80;99.90;;;;;;5006956;28;20041;-80
2020/12/13 04:37:27;;;;;;;89.28;29.95;;;4.90;99.90;;;;;;5011569;28;20037;-80
2020/12/13 04:39:53;;;;;;;78.60;29.10;;;4.90;99.90;;;;;;5010979;28;20068;-80
2020/12/13 04:42:22;;;;;;;87.97;29.80;;;4.90;99.90;;;;;;5011603;28;20026;-80
2020/12/13 04:44:48;;;;;;;84.07;29.58;;;4.90;99.90;;;;;;5010313;28;20050;-80
2020/12/13 04:47:17;;;;;;;79.97;29.70;;;5.00;99.90;;;;;;5010966;28;20436;-80
2020/12/13 04:49:47;;;;;;;84.03;29.10;;;4.80;99.90;;;;;;5011963;28;20030;-80
2020/12/13 04:52:13;;;;;;;84.25;28.58;;;4.80;99.90;;;;;;5023058;28;20088;-80
2020/12/13 04:54:50;;;;;;;90.03;30.27;;;4.90;99.90;;;;;;5010714;28;20558;-80
2020/12/13 04:57:17;;;;;;;79.47;28.20;;;4.90;99.90;;;;;;5010541;28;20492;-80
2020/12/13 04:59:43;;;;;;;78.95;28.10;;;4.90;99.90;;;;;;5010565;28;20029;-80
2020/12/13 05:02:11;;;;;;;82.70;29.58;;;4.90;99.90;;;;;;5010528;28;20025;-80
2020/12/13 05:04:37;;;;;;;83.10;29.88;;;5.00;99.90;;;;;;5010160;28;20049;-80
2020/12/13 05:07:02;;;;;;;78.63;29.65;;;5.00;99.90;;;;;;5010692;28;20037;-80
2020/12/13 05:09:28;;;;;;;86.10;28.95;;;5.00;99.90;;;;;;5010208;28;20393;-80
2020/12/13 05:11:53;;;;;;;78.80;29.27;;;5.00;99.90;;;;;;5010166;28;20041;-81
2020/12/13 05:14:19;;;;;;;86.35;30.30;;;4.90;99.90;;;;;;5010286;28;20029;-80
2020/12/13 05:16:44;;;;;;;76.88;27.13;;;4.90;99.90;;;;;;5010244;28;20393;-79
2020/12/13 05:19:10;;;;;;;86.68;30.08;;;4.90;99.90;;;;;;5010591;28;20022;-80
2020/12/13 05:21:36;;;;;;;77.63;28.35;;;5.00;99.90;;;;;;5010333;28;20033;-81
2020/12/13 05:24:05;;;;;;;76.45;28.33;;;5.00;99.90;;;;;;5010337;28;20025;-80
2020/12/13 05:26:31;;;;;;;79.85;30.48;;;5.00;99.90;;;;;;5009842;28;20037;-80
2020/12/13 05:28:59;;;;;;;76.55;28.73;;;4.80;99.90;;;;;;5006574;28;20034;-80
2020/12/13 05:31:27;;;;;;;81.63;29.70;;;4.80;99.90;;;;;;5001554;28;20501;-80
2020/12/13 05:34:02;;;;;;;82.28;29.02;;;4.90;99.90;;;;;;5009863;28;20033;-80
2020/12/13 05:36:30;;;;;;;75.60;28.05;;;5.00;99.90;;;;;;5009945;28;20030;-80
2020/12/13 05:38:58;;;;;;;81.63;28.15;;;4.90;99.90;;;;;;5009517;28;20588;-80
2020/12/13 05:41:32;;;;;;;80.00;28.65;;;4.80;99.90;;;;;;5010269;28;20131;-80
2020/12/13 05:44:16;;;;;;;69.90;27.75;;;4.70;99.90;;;;;;5009826;28;20032;-80
2020/12/13 05:46:55;;;;;;;82.18;27.95;;;4.70;99.90;;;;;;5009152;28;20026;-80
2020/12/13 05:49:44;;;;;;;81.03;28.20;;;4.70;99.90;;;;;;5009942;28;20037;-80
2020/12/13 05:52:10;;;;;;;75.95;29.17;;;4.80;99.90;;;;;;4998328;28;20053;-80
2020/12/13 05:54:36;;;;;;;72.13;28.83;;;4.70;99.90;;;;;;5009427;28;20072;-80
2020/12/13 05:57:03;;;;;;;72.55;27.05;;;4.70;99.90;;;;;;5000536;28;20033;-80
2020/12/13 05:59:31;;;;;;;69.90;28.48;;;4.80;99.90;;;;;;4996897;28;20025;-80
2020/12/13 06:01:58;;;;;;;73.88;28.23;;;4.80;99.90;;;;;;5009411;28;20032;-80
2020/12/13 06:04:26;;;;;;;76.55;29.75;;;4.90;99.90;;;;;;5009020;28;20048;-80
2020/12/13 06:06:54;;;;;;;75.78;28.30;;;4.80;99.90;;;;;;5009825;28;20034;-79
2020/12/13 06:09:34;;;;;;;72.53;29.38;;;4.80;99.90;;;;;;5009403;28;20061;-79
2020/12/13 06:12:02;;;;;;;74.70;27.75;;;4.80;99.90;;;;;;5009290;28;20025;-80
2020/12/13 06:14:28;;;;;;;75.45;27.80;;;4.80;99.90;;;;;;5006135;28;20025;-79
2020/12/13 06:16:56;;;;;;;74.80;30.42;;;4.80;99.90;;;;;;5007860;28;20108;-79
2020/12/13 06:19:24;;;;;;;79.38;29.77;;;4.70;99.90;;;;;;5003252;28;20069;-80
2020/12/13 06:21:50;;;;;;;75.05;28.85;;;4.70;99.90;;;;;;4999360;28;20116;-80
2020/12/13 06:24:16;;;;;;;78.28;28.90;;;4.70;99.90;;;;;;5008858;28;20663;-79
2020/12/13 06:26:42;;;;;;;77.07;29.23;;;4.70;99.90;;;;;;5004562;28;20113;-89
2020/12/13 06:29:08;;;;;;;70.22;27.70;;;4.70;99.90;;;;;;5008350;28;20049;-79
2020/12/13 06:31:35;;;;;;;77.90;29.00;;;4.70;99.90;;;;;;5006901;28;20505;-80
2020/12/13 06:34:02;;;;;;;75.47;29.83;;;4.70;99.90;;;;;;5004779;28;20439;-79
2020/12/13 06:36:28;;;;;;;76.75;28.65;;;4.70;99.90;;;;;;5009501;28;20069;-80
2020/12/13 06:38:56;;;;;;;73.85;29.20;;;4.70;99.90;;;;;;5008778;28;20042;-80
2020/12/13 06:41:25;;;;;;;71.57;26.65;;;4.80;99.90;;;;;;5005391;28;20033;-78
2020/12/13 06:43:56;;;;;;;76.22;28.77;;;4.70;99.90;;;;;;5004849;28;20025;-78
2020/12/13 06:46:24;;;;;;;69.03;27.98;;;4.70;99.90;;;;;;5008674;28;20129;-91
2020/12/13 06:48:49;;;;;;;79.40;27.92;;;4.70;99.90;;;;;;5002368;28;20064;-89
2020/12/13 06:51:25;;;;;;;73.93;28.08;;;4.80;99.90;;;;;;4998348;28;20109;-88
2020/12/13 06:53:51;;;;;;;72.13;27.73;;;4.80;99.90;;;;;;5002701;28;20037;-87
2020/12/13 06:56:18;;;;;;;76.18;28.33;;;4.70;99.90;;;;;;5002730;28;20052;-86
2020/12/13 06:58:46;;;;;;;72.68;28.63;;;4.70;99.90;;;;;;5004566;28;20018;-87
2020/12/13 07:01:20;;;;;;;74.97;28.65;;;4.70;99.90;;;;;;5002915;28;20038;-87
2020/12/13 07:03:48;;;;;;;74.13;29.38;;;4.80;99.90;;;;;;5004919;28;20101;-87
2020/12/13 07:08:51;;;;;;;76.30;28.83;;;4.70;99.90;;;;;;5003194;28;20026;-87
2020/12/13 07:11:17;;;;;;;76.13;28.40;;;4.70;99.90;;;;;;5004094;28;20374;-86
2020/12/13 07:13:44;;;;;;;81.22;29.13;;;4.70;99.90;;;;;;5004502;28;20034;-87
2020/12/13 07:16:22;;;;;;;74.43;28.42;;;4.70;99.90;;;;;;5004188;28;20835;-87
2020/12/13 07:18:51;;;;;;;76.72;28.73;;;4.80;99.90;;;;;;5002471;28;20429;-86
2020/12/13 07:21:17;;;;;;;77.55;28.42;;;4.80;99.90;;;;;;5004055;28;20057;-87
2020/12/13 07:23:43;;;;;;;76.20;29.25;;;4.80;99.90;;;;;;5001896;28;20473;-86
2020/12/13 07:26:09;;;;;;;67.75;27.88;;;4.70;99.90;;;;;;5005359;28;20022;-86
2020/12/13 07:28:34;;;;;;;73.75;28.10;;;4.70;99.90;;;;;;5003098;28;20025;-87
2020/12/13 07:31:03;;;;;;;74.55;28.60;;;4.70;99.90;;;;;;5001198;28;20120;-87
2020/12/13 07:33:29;;;;;;;76.75;29.23;;;4.70;99.90;;;;;;5003337;28;20116;-88
2020/12/13 07:35:55;;;;;;;77.88;29.77;;;4.70;99.90;;;;;;5004980;28;20108;-88
2020/12/13 07:38:22;;;;;;;73.38;29.13;;;4.70;99.90;;;;;;5003168;28;20080;-87
2020/12/13 07:40:48;;;;;;;75.97;30.08;;;4.70;99.90;;;;;;5003847;28;20125;-86
2020/12/13 07:43:14;;;;;;;78.45;28.65;;;4.70;99.90;;;;;;5003953;28;20034;-86
2020/12/13 07:45:40;;;;;;;80.18;29.90;;;4.80;99.90;;;;;;5002214;28;20038;-86
2020/12/13 07:48:05;;;;;;;79.13;30.02;;;4.80;99.90;;;;;;5004419;28;20030;-86
2020/12/13 07:50:41;;;;;;;76.15;28.95;;;4.80;99.90;;;;;;5003131;28;20033;-87
2020/12/13 07:53:07;;;;;;;79.38;29.20;;;4.80;99.90;;;;;;5004175;28;20030;-87
2020/12/13 07:55:32;;;;;;;106.85;39.08;;;4.80;99.90;;;;;;5002150;28;20026;-79
2020/12/13 07:57:58;;;;;;;80.30;31.10;;;4.80;99.90;;;;;;4999104;28;20560;-78
2020/12/13 08:00:23;;;;;;;87.95;33.72;;;4.80;99.90;;;;;;5003303;28;20022;-82
2020/12/13 08:02:49;;;;;;;72.40;26.83;;;4.80;99.90;;;;;;5000254;28;20536;-81
2020/12/13 08:05:18;;;;;;;70.50;27.23;;;4.80;99.90;;;;;;5004277;28;20045;-81
2020/12/13 08:07:44;;;;;;;76.20;29.23;;;4.90;99.90;;;;;;5003985;28;20029;-81
2020/12/13 08:10:09;;;;;;;74.03;27.65;;;4.80;99.90;;;;;;5003435;28;20032;-81
2020/12/13 08:12:40;;;;;;;74.00;29.17;;;4.90;99.90;;;;;;5007688;28;20467;-81
2020/12/13 08:15:06;;;;;;;65.88;27.15;;;4.90;99.90;;;;;;5007403;28;20030;-82
2020/12/13 08:17:32;;;;;;;73.47;27.40;;;4.80;99.90;;;;;;5006029;28;20795;-82
2020/12/13 08:20:03;;;;;;;66.32;26.63;;;4.90;99.90;;;;;;5007784;28;20018;-81
2020/12/13 08:22:32;;;;;;;73.88;27.08;;;4.90;99.90;;;;;;5006058;28;20388;-81
2020/12/13 08:25:06;;;;;;;71.00;26.98;;;4.80;99.90;;;;;;5005955;28;20100;-81
2020/12/13 08:27:34;;;;;;;68.90;27.45;;;4.90;99.90;;;;;;5005354;28;20056;-80
2020/12/13 08:30:00;;;;;;;65.50;26.65;;;4.90;99.90;;;;;;5005079;28;20021;-87
2020/12/13 08:32:33;;;;;;;72.15;27.98;;;4.90;99.90;;;;;;5006393;28;20030;-79
2020/12/13 08:35:12;;;;;;;71.38;27.08;;;4.90;99.90;;;;;;5007888;28;20072;-79
2020/12/13 08:37:39;;;;;;;76.85;29.42;;;4.90;99.90;;;;;;5002382;28;20088;-82
2020/12/13 08:40:09;;;;;;;73.15;28.98;;;5.00;99.90;;;;;;5004207;28;20029;-79
2020/12/13 08:42:34;;;;;;;72.43;28.38;;;5.10;99.90;;;;;;5006369;28;20034;-82
2020/12/13 08:45:00;;;;;;;71.80;27.38;;;5.10;99.90;;;;;;5004832;28;20476;-75
2020/12/13 08:47:32;;;;;;;74.47;27.20;;;5.10;99.90;;;;;;5004539;28;20034;-80
2020/12/13 08:49:57;;;;;;;78.00;27.50;;;5.10;99.90;;;;;;5008569;28;20053;-80
2020/12/13 08:52:25;;;;;;;74.53;27.15;;;5.10;99.90;;;;;;5006051;28;20484;-79
2020/12/13 08:54:56;;;;;;;71.10;27.77;;;5.10;99.90;;;;;;5004565;28;20030;-81
2020/12/13 08:57:28;;;;;;;70.15;26.70;;;5.20;99.90;;;;;;5004152;28;20629;-79
2020/12/13 09:00:05;;;;;;;78.10;28.73;;;5.30;99.90;;;;;;5002046;28;20030;-80
2020/12/13 09:02:31;;;;;;;72.95;27.83;;;5.30;99.90;;;;;;5002649;28;20083;-80
2020/12/13 09:04:57;;;;;;;78.03;29.20;;;5.30;99.90;;;;;;5002520;28;20077;-79
2020/12/13 09:07:24;;;;;;;73.68;27.58;;;5.30;99.90;;;;;;5002579;28;20045;-77
2020/12/13 09:09:49;;;;;;;73.93;28.55;;;5.30;99.90;;;;;;5001756;28;20048;-77
2020/12/13 09:12:20;;;;;;;66.18;27.88;;;5.40;99.90;;;;;;5000795;28;20022;-77
2020/12/13 09:14:46;;;;;;;65.53;27.63;;;5.50;99.90;;;;;;5002324;28;20036;-76
2020/12/13 09:17:22;;;;;;;71.13;28.35;;;5.50;99.90;;;;;;5002057;28;20034;-77
2020/12/13 09:19:51;;;;;;;64.07;26.55;;;5.50;99.90;;;;;;5001762;28;20028;-78
2020/12/13 09:22:21;;;;;;;75.32;27.50;;;5.60;99.90;;;;;;5001524;28;20021;-79
2020/12/13 09:24:48;;;;;;;63.15;25.58;;;5.70;99.90;;;;;;5002445;28;20105;-79
2020/12/13 09:27:19;;;;;;;67.53;27.05;;;5.60;99.90;;;;;;5000287;28;20518;-77
2020/12/13 09:29:46;;;;;;;68.88;27.38;;;5.60;99.90;;;;;;5007787;28;20036;-81
2020/12/13 09:32:12;;;;;;;65.45;25.88;;;5.60;99.90;;;;;;5006743;28;20053;-77
2020/12/13 09:34:38;;;;;;;65.28;26.02;;;5.60;99.90;;;;;;5009023;28;20029;-86
2020/12/13 09:37:04;;;;;;;70.88;28.08;;;5.60;99.90;;;;;;5009375;28;20034;-78
2020/12/13 09:39:33;;;;;;;65.60;26.85;;;5.70;99.90;;;;;;5005694;28;20044;-77
2020/12/13 09:41:58;;;;;;;63.70;26.73;;;5.80;99.90;;;;;;5005220;28;20101;-82
2020/12/13 09:44:24;;;;;;;70.97;27.42;;;5.80;99.90;;;;;;5000832;28;20492;-78
2020/12/13 09:46:54;;;;;;;69.00;26.63;;;5.70;99.90;;;;;;5005172;28;20026;-78
2020/12/13 09:49:20;;;;;;;61.72;25.58;;;5.80;99.90;;;;;;5005034;28;20080;-83
2020/12/13 09:51:46;;;;;;;70.30;25.38;;;5.80;99.90;;;;;;5003927;28;20271;-79
2020/12/13 09:54:12;;;;;;;65.85;25.13;;;5.80;99.90;;;;;;5005049;28;20113;-79
2020/12/13 09:56:37;;;;;;;64.13;25.85;;;5.80;99.90;;;;;;5004192;28;20128;-79
2020/12/13 09:59:03;;;;;;;65.22;25.58;;;5.90;99.90;;;;;;5004608;28;20030;-78
2020/12/13 10:01:28;;;;;;;63.05;25.65;;;5.80;99.90;;;;;;5004737;28;20544;-78
2020/12/13 10:03:55;;;;;;;55.08;23.75;;;5.90;99.90;;;;;;5004715;28;20057;-78
2020/12/13 10:11:37;;;;;;;63.38;24.77;;;5.80;99.90;;;;;;5004979;28;20092;-80
2020/12/13 10:14:04;;;;;;;65.80;27.90;;;5.90;99.90;;;;;;5003501;28;20022;-85
2020/12/13 10:16:30;;;;;;;61.15;24.70;;;6.00;99.90;;;;;;5004631;28;20552;-85
2020/12/13 10:18:55;;;;;;;65.25;27.42;;;6.00;99.90;;;;;;5006287;28;20101;-85
2020/12/13 10:21:23;;;;;;;57.40;24.80;;;5.90;99.90;;;;;;5005654;28;20374;-85
2020/12/13 10:23:48;;;;;;;63.70;25.85;;;5.90;99.90;;;;;;5004951;28;20030;-86
2020/12/13 10:26:14;;;;;;;54.83;24.38;;;6.00;99.90;;;;;;5004595;28;20472;-85
2020/12/13 10:28:39;;;;;;;59.90;25.23;;;5.90;99.90;;;;;;5004332;28;20037;-85
2020/12/13 10:31:05;;;;;;;53.83;23.58;;;6.00;99.90;;;;;;5005269;28;20120;-85
2020/12/13 10:33:30;;;;;;;56.17;24.17;;;6.10;99.90;;;;;;4994210;28;20068;-85
2020/12/13 10:35:56;;;;;;;63.30;23.40;;;6.10;99.90;;;;;;5003556;28;20362;-84
2020/12/13 10:38:21;;;;;;;55.85;24.80;;;6.20;99.90;;;;;;4998839;28;20060;-84
2020/12/13 10:40:47;;;;;;;59.70;23.55;;;6.10;99.90;;;;;;5001542;28;20460;-84
2020/12/13 10:43:13;;;;;;;56.30;25.17;;;6.20;99.90;;;;;;5006047;28;20025;-86
2020/12/13 10:45:39;;;;;;;61.25;23.38;;;6.10;99.90;;;;;;5004427;28;20026;-84
2020/12/13 10:48:04;;;;;;;54.70;23.30;;;6.20;99.90;;;;;;5004405;28;20026;-85
2020/12/13 10:50:37;;;;;;;57.70;24.17;;;6.10;99.90;;;;;;5006118;28;20044;-85
2020/12/13 10:53:03;;;;;;;61.53;25.10;;;6.20;99.90;;;;;;5004613;28;20056;-86
2020/12/13 10:55:28;;;;;;;54.38;23.52;;;6.30;99.90;;;;;;5004848;28;20033;-86
2020/12/13 10:57:54;;;;;;;52.20;22.73;;;6.20;99.90;;;;;;5003656;28;20018;-86
2020/12/13 11:00:19;;;;;;;69.70;26.75;;;6.20;99.90;;;;;;5005083;28;20637;-83
2020/12/13 11:02:45;;;;;;;58.08;23.70;;;6.30;99.90;;;;;;5003289;28;20418;-85
2020/12/13 11:05:10;;;;;;;66.43;26.35;;;6.30;99.90;;;;;;5003343;28;20049;-90
2020/12/13 11:07:36;;;;;;;55.03;23.77;;;6.30;99.90;;;;;;5004529;28;20473;-83
2020/12/13 11:10:02;;;;;;;55.53;23.67;;;6.40;99.90;;;;;;4992555;28;20030;-83
2020/12/13 11:12:28;;;;;;;59.55;26.08;;;6.40;99.90;;;;;;4996602;28;20508;-82
2020/12/13 11:14:53;;;;;;;52.10;24.08;;;6.50;99.90;;;;;;4993957;28;20038;-82
2020/12/13 11:17:19;;;;;;;52.50;22.63;;;6.40;99.90;;;;;;4996804;28;20801;-82
2020/12/13 11:19:44;;;;;;;55.47;24.20;;;6.30;99.90;;;;;;4996842;28;20515;-83
2020/12/13 11:22:10;;;;;;;55.72;25.13;;;6.40;99.90;;;;;;4999237;28;20060;-82
2020/12/13 11:24:38;;;;;;;56.58;24.10;;;6.40;99.90;;;;;;4993458;28;20072;-83
2020/12/13 11:27:07;;;;;;;59.15;25.17;;;6.50;99.90;;;;;;4996047;28;20053;-83
2020/12/13 11:29:33;;;;;;;58.30;23.80;;;6.50;99.90;;;;;;5000131;28;20085;-83
2020/12/13 11:31:59;;;;;;;57.38;24.00;;;6.50;99.90;;;;;;4999696;28;20049;-83
2020/12/13 11:34:25;;;;;;;58.15;24.90;;;6.40;99.90;;;;;;5001692;28;20037;-84
2020/12/13 11:36:50;;;;;;;61.97;26.30;;;6.50;99.90;;;;;;5002309;28;20485;-84
2020/12/13 11:39:16;;;;;;;61.83;25.27;;;6.50;99.90;;;;;;4999970;28;20038;-83
2020/12/13 11:41:41;;;;;;;56.72;23.80;;;6.50;99.90;;;;;;5002959;28;20508;-84
2020/12/13 11:44:06;;;;;;;55.00;24.25;;;6.50;99.90;;;;;;5000111;28;20437;-85
2020/12/13 11:46:32;;;;;;;56.03;24.17;;;6.50;99.90;;;;;;4999448;28;20026;-84
2020/12/13 11:48:57;;;;;;;57.28;23.70;;;6.50;99.90;;;;;;5003458;28;20131;-83
2020/12/13 11:51:23;;;;;;;61.90;24.65;;;6.50;99.90;;;;;;5003276;28;20030;-84
2020/12/13 11:53:48;;;;;;;63.13;25.77;;;6.50;99.90;;;;;;4999655;28;20110;-83
2020/12/13 11:56:21;;;;;;;59.38;24.83;;;6.50;99.90;;;;;;5001418;28;20404;-87
2020/12/13 11:58:46;;;;;;;60.50;24.60;;;6.50;99.90;;;;;;5002440;28;20727;-80
2020/12/13 12:01:12;;;;;;;62.78;24.85;;;6.40;99.90;;;;;;5000049;28;20030;-83
2020/12/13 12:03:37;;;;;;;61.40;25.45;;;6.40;99.90;;;;;;5000906;28;20136;-84
2020/12/13 12:06:08;;;;;;;57.95;23.85;;;6.50;99.90;;;;;;4999876;28;20014;-83
2020/12/13 12:08:33;;;;;;;59.72;25.60;;;6.50;99.90;;;;;;4999171;28;20040;-82
2020/12/13 12:10:59;;;;;;;63.28;24.88;;;6.50;99.90;;;;;;5003571;28;20030;-83
2020/12/13 12:13:24;;;;;;;62.63;26.73;;;6.50;99.90;;;;;;5003875;28;20030;-83
2020/12/13 12:15:50;;;;;;;62.00;26.65;;;6.60;99.90;;;;;;5003736;28;20039;-83
2020/12/13 12:18:15;;;;;;;56.53;25.13;;;6.70;99.90;;;;;;5001332;28;20038;-83
2020/12/13 12:20:41;;;;;;;59.40;24.13;;;6.70;99.90;;;;;;5003620;28;20069;-83
2020/12/13 12:23:07;;;;;;;61.70;26.17;;;6.70;99.90;;;;;;5000730;28;20477;-83
2020/12/13 12:25:35;;;;;;;57.58;24.08;;;6.60;99.90;;;;;;5001751;28;20041;-83
2020/12/13 12:28:01;;;;;;;57.03;23.98;;;6.60;99.90;;;;;;5003064;28;20559;-83
2020/12/13 12:30:26;;;;;;;59.55;23.85;;;6.60;99.90;;;;;;5003376;28;20116;-82
2020/12/13 12:32:52;;;;;;;57.05;24.38;;;6.60;99.90;;;;;;5002741;28;20420;-83
2020/12/13 12:35:17;;;;;;;59.83;24.40;;;6.60;99.90;;;;;;5002296;28;20037;-83
2020/12/13 12:37:42;;;;;;;55.00;24.00;;;6.70;99.90;;;;;;5003649;28;20128;-83
2020/12/13 12:40:08;;;;;;;67.35;25.98;;;6.70;99.90;;;;;;5003344;28;20030;-83
2020/12/13 12:42:34;;;;;;;61.30;25.15;;;6.80;99.90;;;;;;5000886;28;20117;-86